Jackson, Missouri
Current Conditions -  °F | °C
As of 7:53 AM on Wednesday 26 Nov 2014 (Local Time) from KCGI Reporting Station
Haze Haze  
Wind Chill: 30°   Ceiling: Unl
Heat Index: 30°   Visibility: 5mi
Dew Point: 28°   Wind: 3mph
Humidity: 92%   Direction: 100°E
Pressure: 30.11"   Gusts: NA
Location:  37.38°N, 89.67°W
Report Text: KCGI 261353Z 10003KT 5SM BR CLR M01/M02 A3011 RMK AO2 SLP200 T10111022
Loading
Personal Weather Stations






























Interactive Weather Map New forecast layout! Learn more

10-Day Weather Forecast

Advertisements
Track Severe Weather on mobile